Time;durP1;ratioP1;P1;durP2;ratioP2;P2;SDS_P1;SDS_P2;PMS_P1;PMS_P2;Temp;Humidity;BMP_temperature;BMP_pressure;BME280_temperature;BME280_humidity;BME280_pressure;Samples;Min_cycle;Max_cycle;Signal;HPM_P1;HPM_P2
2023/11/14 00:00:52;;;;;;;2.00;0.93;;;15.20;89.50;;;;;;5017000;28;20482;-75
2023/11/14 00:03:20;;;;;;;3.00;0.80;;;15.20;89.80;;;;;;5016989;28;20435;-75
2023/11/14 00:05:47;;;;;;;1.77;0.60;;;15.20;90.00;;;;;;5017081;28;20435;-75
2023/11/14 00:08:14;;;;;;;2.57;0.80;;;15.10;90.00;;;;;;5016605;28;20436;-75
2023/11/14 00:10:41;;;;;;;2.40;1.10;;;15.10;90.00;;;;;;5016913;28;20802;-75
2023/11/14 00:13:08;;;;;;;1.90;0.73;;;15.10;90.20;;;;;;5016764;28;20495;-75
2023/11/14 00:15:36;;;;;;;2.00;0.80;;;15.10;90.30;;;;;;5016478;28;20443;-75
2023/11/14 00:18:03;;;;;;;2.07;0.60;;;15.10;90.30;;;;;;5016732;28;20439;-75
2023/11/14 00:20:30;;;;;;;1.90;0.97;;;15.10;90.50;;;;;;5016598;28;20545;-75
2023/11/14 00:22:57;;;;;;;2.10;0.67;;;15.00;90.60;;;;;;5016652;28;20980;-75
2023/11/14 00:25:24;;;;;;;2.10;0.90;;;15.00;91.00;;;;;;5016908;28;20522;-75
2023/11/14 00:27:51;;;;;;;1.80;0.70;;;15.00;91.20;;;;;;5016964;28;20435;-75
2023/11/14 00:30:18;;;;;;;3.60;0.60;;;15.00;91.30;;;;;;5016487;28;20443;-76
2023/11/14 00:32:47;;;;;;;2.10;0.80;;;15.00;91.40;;;;;;5016503;28;20439;-75
2023/11/14 00:35:14;;;;;;;2.00;1.00;;;15.00;91.50;;;;;;5016628;28;20743;-75
2023/11/14 00:37:41;;;;;;;1.80;0.57;;;15.00;91.40;;;;;;5016340;28;20996;-75
2023/11/14 00:40:10;;;;;;;1.80;0.60;;;15.00;91.40;;;;;;5016584;28;20525;-75
2023/11/14 00:42:37;;;;;;;2.10;0.70;;;15.00;91.60;;;;;;5016175;28;20467;-74
2023/11/14 00:45:04;;;;;;;2.10;0.80;;;15.00;92.10;;;;;;5016521;28;20431;-75
2023/11/14 00:47:31;;;;;;;2.97;0.80;;;15.00;92.40;;;;;;5016505;28;20775;-75
2023/11/14 00:50:00;;;;;;;2.40;0.87;;;15.00;93.30;;;;;;5016011;28;20439;-75
2023/11/14 00:52:28;;;;;;;2.40;0.80;;;14.90;94.10;;;;;;5016350;28;20799;-75
2023/11/14 00:54:55;;;;;;;1.90;0.80;;;14.90;94.60;;;;;;5015934;28;20886;-75
2023/11/14 00:57:22;;;;;;;3.10;1.10;;;14.90;95.00;;;;;;5015290;28;20465;-75
2023/11/14 00:59:49;;;;;;;1.90;0.60;;;14.80;95.60;;;;;;5016067;28;20471;-75
2023/11/14 01:02:16;;;;;;;2.60;0.97;;;14.80;96.10;;;;;;5016206;28;20447;-75
2023/11/14 01:04:43;;;;;;;2.27;1.07;;;14.70;96.70;;;;;;5016049;28;20436;-75
2023/11/14 01:07:12;;;;;;;1.87;0.80;;;14.70;97.20;;;;;;5016088;28;20853;-75
2023/11/14 01:09:39;;;;;;;1.90;0.90;;;14.70;97.70;;;;;;5015695;28;20985;-75
2023/11/14 01:12:07;;;;;;;1.80;0.60;;;14.70;97.90;;;;;;5015779;28;20439;-75
2023/11/14 01:14:34;;;;;;;2.00;0.80;;;14.60;98.10;;;;;;5015642;28;20450;-75
2023/11/14 01:17:01;;;;;;;1.80;0.70;;;14.60;98.60;;;;;;5015634;28;20443;-75
2023/11/14 01:19:28;;;;;;;1.90;0.80;;;14.60;98.90;;;;;;5015399;28;20471;-75
2023/11/14 01:21:55;;;;;;;4.03;0.90;;;14.60;99.30;;;;;;5015836;28;20514;-75
2023/11/14 01:24:24;;;;;;;2.13;0.73;;;14.60;99.60;;;;;;5015507;28;20442;-75
2023/11/14 01:26:50;;;;;;;2.77;0.70;;;14.50;99.80;;;;;;5015426;28;20439;-75
2023/11/14 01:29:17;;;;;;;2.00;0.63;;;14.50;99.90;;;;;;5015748;28;20436;-75
2023/11/14 01:31:44;;;;;;;2.10;0.63;;;14.50;99.90;;;;;;5015706;28;20431;-75
2023/11/14 01:34:11;;;;;;;3.73;0.70;;;14.50;99.90;;;;;;5015251;28;20984;-75
2023/11/14 01:36:38;;;;;;;2.17;0.70;;;14.50;99.90;;;;;;5015538;28;20445;-75
2023/11/14 01:39:08;;;;;;;5.50;0.80;;;14.50;99.90;;;;;;5014962;28;20795;-75
2023/11/14 01:41:36;;;;;;;2.00;0.60;;;14.50;99.90;;;;;;5015477;28;20440;-75
2023/11/14 01:44:04;;;;;;;1.77;0.70;;;14.50;99.90;;;;;;5015482;28;20439;-75
2023/11/14 01:46:31;;;;;;;3.10;1.00;;;14.40;99.90;;;;;;5015046;28;20435;-75
2023/11/14 01:48:59;;;;;;;2.07;0.60;;;14.50;99.90;;;;;;5015189;28;20522;-75
2023/11/14 01:51:27;;;;;;;5.60;0.77;;;14.40;99.90;;;;;;5015312;28;20526;-75
2023/11/14 01:53:55;;;;;;;2.00;0.57;;;14.40;99.90;;;;;;5014816;28;20984;-75
2023/11/14 01:56:23;;;;;;;2.60;0.50;;;14.40;99.90;;;;;;5014650;28;20945;-75
2023/11/14 01:58:52;;;;;;;1.90;0.80;;;14.40;99.90;;;;;;5014968;28;20510;-75
2023/11/14 02:01:20;;;;;;;1.60;0.50;;;14.40;99.90;;;;;;5014431;28;20566;-75
2023/11/14 02:03:47;;;;;;;1.70;0.50;;;14.30;99.90;;;;;;5014662;28;20486;-75
2023/11/14 02:06:14;;;;;;;1.70;0.50;;;14.30;99.90;;;;;;5014489;28;20440;-75
2023/11/14 02:08:42;;;;;;;2.00;0.70;;;14.20;99.60;;;;;;5013808;28;20840;-75
2023/11/14 02:11:09;;;;;;;1.80;0.70;;;14.20;99.60;;;;;;5014572;28;20490;-75
2023/11/14 02:13:36;;;;;;;2.50;0.60;;;14.10;99.60;;;;;;5014294;28;20443;-74
2023/11/14 02:16:06;;;;;;;3.00;0.63;;;14.10;99.60;;;;;;5014280;28;20525;-75
2023/11/14 02:18:33;;;;;;;1.90;0.60;;;14.10;99.60;;;;;;5014392;28;20498;-74
2023/11/14 02:21:00;;;;;;;2.47;0.90;;;14.10;99.30;;;;;;5014458;28;20513;-75
2023/11/14 02:23:29;;;;;;;2.80;0.60;;;14.00;99.00;;;;;;5014574;28;20802;-75
2023/11/14 02:25:59;;;;;;;1.60;0.50;;;14.00;98.90;;;;;;5014352;28;20450;-74
2023/11/14 02:28:26;;;;;;;2.73;0.60;;;14.00;98.70;;;;;;5014323;28;20447;-75
2023/11/14 02:30:54;;;;;;;1.70;0.63;;;13.90;98.50;;;;;;5013947;28;20988;-75
2023/11/14 02:33:21;;;;;;;2.10;0.63;;;13.90;98.70;;;;;;5014002;28;20435;-75
2023/11/14 02:35:48;;;;;;;2.00;0.77;;;13.80;98.40;;;;;;5014213;28;20436;-74
2023/11/14 02:38:15;;;;;;;3.40;0.83;;;13.80;98.60;;;;;;5014126;28;20792;-75
2023/11/14 02:40:41;;;;;;;1.97;0.87;;;13.80;98.60;;;;;;5014154;28;20756;-74
2023/11/14 02:43:10;;;;;;;2.53;0.63;;;13.70;98.40;;;;;;5013731;28;20439;-75
2023/11/14 02:45:37;;;;;;;1.80;0.70;;;13.70;98.20;;;;;;5013733;28;20481;-75
2023/11/14 02:48:06;;;;;;;2.03;0.60;;;13.70;98.30;;;;;;5013625;28;20470;-75
2023/11/14 02:50:50;;;;;;;2.73;0.90;;;13.70;98.40;;;;;;5013957;28;20481;-74
2023/11/14 02:53:19;;;;;;;1.97;0.60;;;13.60;98.40;;;;;;5014178;28;20430;-74
2023/11/14 02:55:46;;;;;;;1.80;0.70;;;13.60;98.30;;;;;;5014099;28;20509;-74
2023/11/14 02:58:15;;;;;;;4.47;1.37;;;13.50;98.50;;;;;;5013937;28;20513;-74
2023/11/14 03:00:45;;;;;;;1.80;0.70;;;13.50;98.60;;;;;;5013975;28;20479;-75
2023/11/14 03:03:13;;;;;;;2.10;0.70;;;13.50;98.40;;;;;;5014005;28;20423;-75
2023/11/14 03:05:41;;;;;;;3.50;0.80;;;13.50;98.40;;;;;;5013509;28;20485;-74
2023/11/14 03:08:08;;;;;;;4.23;0.90;;;13.50;98.30;;;;;;5013700;28;20435;-75
2023/11/14 03:10:35;;;;;;;2.20;0.80;;;13.40;98.20;;;;;;5013664;28;20435;-74
2023/11/14 03:13:03;;;;;;;1.80;0.60;;;13.40;98.20;;;;;;5013859;28;20454;-74
2023/11/14 03:15:33;;;;;;;2.23;0.90;;;13.40;98.50;;;;;;5013419;28;20952;-75
2023/11/14 03:18:00;;;;;;;2.20;0.60;;;13.40;98.60;;;;;;5013388;28;20447;-75
2023/11/14 03:20:27;;;;;;;2.33;0.70;;;13.40;98.50;;;;;;5013412;28;20478;-75
2023/11/14 03:22:55;;;;;;;2.10;0.90;;;13.30;98.30;;;;;;5013804;28;20493;-75
2023/11/14 03:25:23;;;;;;;2.00;0.60;;;13.30;98.40;;;;;;5013471;28;20937;-75
2023/11/14 03:27:50;;;;;;;2.70;1.03;;;13.30;98.50;;;;;;5013956;28;20473;-75
2023/11/14 03:30:19;;;;;;;1.73;0.70;;;13.20;98.10;;;;;;5013743;28;20450;-74
2023/11/14 03:32:47;;;;;;;3.40;0.70;;;13.20;97.70;;;;;;5013719;28;20526;-75
2023/11/14 03:35:14;;;;;;;2.43;0.70;;;13.20;97.70;;;;;;5013400;28;20447;-75
2023/11/14 03:37:41;;;;;;;3.00;0.73;;;13.20;97.70;;;;;;5013761;28;20788;-75
2023/11/14 03:40:09;;;;;;;1.70;0.63;;;13.10;97.30;;;;;;5013668;28;20549;-75
2023/11/14 03:42:36;;;;;;;2.20;0.60;;;13.10;97.30;;;;;;5013368;28;20497;-75
2023/11/14 03:45:04;;;;;;;1.87;0.60;;;13.10;96.80;;;;;;5013595;28;20769;-74
2023/11/14 03:47:31;;;;;;;1.93;0.70;;;13.00;96.80;;;;;;5013239;28;20461;-75
2023/11/14 03:49:59;;;;;;;2.10;0.63;;;13.00;96.70;;;;;;5013157;28;20430;-75
2023/11/14 03:52:26;;;;;;;2.10;0.80;;;13.00;97.00;;;;;;5013196;28;20462;-75
2023/11/14 03:54:53;;;;;;;2.50;1.10;;;12.90;97.00;;;;;;5013511;28;20446;-75
2023/11/14 03:57:21;;;;;;;1.97;0.80;;;12.90;97.10;;;;;;5013457;28;20471;-75
2023/11/14 03:59:48;;;;;;;1.70;0.60;;;12.90;97.20;;;;;;5013235;28;21009;-75
2023/11/14 04:02:15;;;;;;;3.70;0.90;;;12.90;97.30;;;;;;5013634;28;20434;-75
2023/11/14 04:04:42;;;;;;;2.30;0.70;;;12.90;97.40;;;;;;5013193;28;20485;-75
2023/11/14 04:07:11;;;;;;;2.77;0.70;;;12.90;97.40;;;;;;5013476;28;20486;-75
2023/11/14 04:09:40;;;;;;;2.57;0.60;;;12.90;97.40;;;;;;5013202;28;20432;-75
2023/11/14 04:12:08;;;;;;;1.70;0.70;;;12.90;97.50;;;;;;5013330;28;20844;-75
2023/11/14 04:14:35;;;;;;;3.40;0.80;;;12.80;97.80;;;;;;5012966;28;20434;-75
2023/11/14 04:17:03;;;;;;;2.03;0.80;;;12.80;98.40;;;;;;5013028;28;20431;-75
2023/11/14 04:19:30;;;;;;;2.13;0.70;;;12.80;98.00;;;;;;5012944;28;20525;-75
2023/11/14 04:21:57;;;;;;;2.70;0.77;;;12.80;98.00;;;;;;5012903;28;20479;-74
2023/11/14 04:24:25;;;;;;;2.17;0.70;;;12.80;98.10;;;;;;5013311;28;20435;-75
2023/11/14 04:26:52;;;;;;;3.50;1.00;;;12.80;98.10;;;;;;5012954;28;20991;-75
2023/11/14 04:29:19;;;;;;;3.00;0.80;;;12.80;98.30;;;;;;5013003;28;20969;-75
2023/11/14 04:31:46;;;;;;;1.90;0.70;;;12.80;98.50;;;;;;5013054;28;20446;-75
2023/11/14 04:34:14;;;;;;;2.87;0.90;;;12.80;98.00;;;;;;5016678;28;20779;-75
2023/11/14 04:36:41;;;;;;;1.80;0.50;;;12.80;97.70;;;;;;5016837;28;20773;-76
2023/11/14 04:39:09;;;;;;;2.20;0.80;;;12.80;97.40;;;;;;5016897;28;20842;-75
2023/11/14 04:41:37;;;;;;;2.90;0.80;;;12.70;97.50;;;;;;5016736;28;20498;-75
2023/11/14 04:44:05;;;;;;;3.93;0.93;;;12.70;97.80;;;;;;5016472;28;20538;-75
2023/11/14 04:46:33;;;;;;;1.80;0.60;;;12.70;97.90;;;;;;5016190;28;20523;-75
2023/11/14 04:49:00;;;;;;;1.77;0.63;;;12.70;98.20;;;;;;5016294;28;20431;-75
2023/11/14 04:51:27;;;;;;;2.80;0.83;;;12.70;98.00;;;;;;5016243;28;20493;-75
2023/11/14 04:53:54;;;;;;;1.90;0.80;;;12.70;98.50;;;;;;5016033;28;20505;-75
2023/11/14 04:56:21;;;;;;;2.83;0.90;;;12.70;98.70;;;;;;5016294;28;20522;-75
2023/11/14 04:58:49;;;;;;;2.30;0.83;;;12.60;98.90;;;;;;5016381;28;20467;-75
2023/11/14 05:01:17;;;;;;;2.30;0.77;;;12.60;99.00;;;;;;5015899;28;20482;-75
2023/11/14 05:03:44;;;;;;;2.27;0.80;;;12.60;99.00;;;;;;5015841;28;20465;-75
2023/11/14 05:06:11;;;;;;;2.43;1.03;;;12.60;99.10;;;;;;5015926;28;20501;-75
2023/11/14 05:08:38;;;;;;;2.43;0.70;;;12.60;99.20;;;;;;5015873;28;20918;-75
2023/11/14 05:11:06;;;;;;;2.00;0.60;;;12.60;99.50;;;;;;5016182;28;20470;-75
2023/11/14 05:13:33;;;;;;;2.07;0.90;;;12.60;99.60;;;;;;5016185;28;20463;-75
2023/11/14 05:16:02;;;;;;;2.00;0.70;;;12.60;99.60;;;;;;5015692;28;20921;-75
2023/11/14 05:18:29;;;;;;;2.00;0.83;;;12.60;99.30;;;;;;5016278;28;20447;-76
2023/11/14 05:20:55;;;;;;;1.87;0.73;;;12.60;99.30;;;;;;5015557;28;20984;-75
2023/11/14 05:23:22;;;;;;;1.83;0.67;;;12.60;99.10;;;;;;5015557;28;20435;-75
2023/11/14 05:25:51;;;;;;;3.07;1.00;;;12.50;98.90;;;;;;5015910;28;20443;-75
2023/11/14 05:28:18;;;;;;;3.40;1.43;;;12.50;98.80;;;;;;5015743;28;20501;-75
2023/11/14 05:30:45;;;;;;;3.23;0.90;;;12.50;98.60;;;;;;5015754;28;20447;-75
2023/11/14 05:33:14;;;;;;;3.30;1.07;;;12.50;98.20;;;;;;5015372;28;20935;-75
2023/11/14 05:35:41;;;;;;;2.70;0.90;;;12.50;97.70;;;;;;5015591;28;20447;-75
2023/11/14 05:38:08;;;;;;;3.40;0.67;;;12.40;97.90;;;;;;5015402;28;20776;-75
2023/11/14 05:40:35;;;;;;;3.03;0.80;;;12.40;98.00;;;;;;5015108;28;20531;-75
2023/11/14 05:43:02;;;;;;;2.67;0.87;;;12.40;98.10;;;;;;5015392;28;20466;-75
2023/11/14 05:45:30;;;;;;;6.63;0.97;;;12.40;98.00;;;;;;5015433;28;20474;-75
2023/11/14 05:47:57;;;;;;;2.03;0.83;;;12.40;97.70;;;;;;5015449;28;20439;-75
2023/11/14 05:50:25;;;;;;;2.10;0.90;;;12.40;97.80;;;;;;5015261;28;20442;-75
2023/11/14 05:52:52;;;;;;;2.00;0.70;;;12.30;97.70;;;;;;5015020;28;20435;-75
2023/11/14 05:55:19;;;;;;;2.00;0.80;;;12.30;97.70;;;;;;5015260;28;20436;-75
2023/11/14 05:57:47;;;;;;;3.30;1.37;;;12.30;97.80;;;;;;5015096;28;20467;-75
2023/11/14 06:00:15;;;;;;;3.73;0.80;;;12.20;97.60;;;;;;5014865;28;21001;-75
2023/11/14 06:02:42;;;;;;;3.17;1.00;;;12.20;97.70;;;;;;5015092;28;20558;-75
2023/11/14 06:05:09;;;;;;;6.17;1.90;;;12.20;97.50;;;;;;5014685;28;20431;-75
2023/11/14 06:07:38;;;;;;;3.60;1.87;;;12.20;97.30;;;;;;5014972;28;20439;-75
2023/11/14 06:10:07;;;;;;;3.90;1.60;;;12.10;97.70;;;;;;5015370;28;20454;-75
2023/11/14 06:12:35;;;;;;;3.00;1.43;;;12.10;98.20;;;;;;5014879;28;20789;-75
2023/11/14 06:15:02;;;;;;;5.37;2.00;;;12.10;98.10;;;;;;5031224;28;20445;-75
2023/11/14 06:17:29;;;;;;;5.30;2.07;;;12.10;97.80;;;;;;5031825;28;20480;-75
2023/11/14 06:19:56;;;;;;;5.07;2.17;;;12.00;97.80;;;;;;5031504;28;20565;-75
2023/11/14 06:22:23;;;;;;;4.57;1.70;;;12.00;98.10;;;;;;5031403;28;20517;-75
2023/11/14 06:24:51;;;;;;;6.10;2.17;;;12.00;98.60;;;;;;5013896;28;20493;-75
2023/11/14 06:27:18;;;;;;;6.27;2.20;;;12.00;98.80;;;;;;5013836;28;20910;-75
2023/11/14 06:29:45;;;;;;;8.20;2.50;;;12.00;98.60;;;;;;5013822;28;20493;-75
2023/11/14 06:32:14;;;;;;;4.23;2.17;;;12.00;98.90;;;;;;5014110;28;20435;-75
2023/11/14 06:34:41;;;;;;;5.83;1.37;;;12.00;99.00;;;;;;5013674;28;20431;-75
2023/11/14 06:37:10;;;;;;;3.60;2.30;;;11.90;99.30;;;;;;5017531;28;20450;-75
2023/11/14 06:39:40;;;;;;;2.23;0.90;;;11.90;99.40;;;;;;5014025;28;20509;-75
2023/11/14 06:42:08;;;;;;;3.20;1.17;;;12.00;99.60;;;;;;5030908;28;20470;-75
2023/11/14 06:44:35;;;;;;;2.57;0.97;;;12.00;99.80;;;;;;5031388;28;20434;-75
2023/11/14 06:47:04;;;;;;;2.57;0.80;;;12.00;99.80;;;;;;5031417;28;20442;-75
2023/11/14 06:49:31;;;;;;;1.90;0.80;;;12.00;99.80;;;;;;5031075;28;20449;-75
2023/11/14 06:51:58;;;;;;;2.20;0.77;;;12.00;99.90;;;;;;5030955;28;20434;-75
2023/11/14 06:54:25;;;;;;;2.43;1.00;;;12.00;99.90;;;;;;5031363;28;20496;-75
2023/11/14 06:56:52;;;;;;;2.33;0.77;;;12.00;99.40;;;;;;5019384;28;20443;-75
2023/11/14 06:59:21;;;;;;;2.00;0.70;;;12.00;99.20;;;;;;5013639;28;20455;-76
2023/11/14 07:01:52;;;;;;;2.57;0.60;;;12.00;99.20;;;;;;5013513;28;20487;-75
2023/11/14 07:04:19;;;;;;;1.90;0.70;;;12.10;99.20;;;;;;5013775;28;20442;-75
2023/11/14 07:06:46;;;;;;;3.07;0.70;;;12.10;99.20;;;;;;5013592;28;20463;-75
2023/11/14 07:09:15;;;;;;;1.70;0.60;;;12.10;98.90;;;;;;5014231;28;20501;-75
2023/11/14 07:11:42;;;;;;;2.23;0.60;;;12.10;98.40;;;;;;5013102;28;20451;-75
2023/11/14 07:14:09;;;;;;;2.73;0.70;;;12.10;97.30;;;;;;5017370;28;20454;-75
2023/11/14 07:16:38;;;;;;;1.70;0.50;;;12.10;96.10;;;;;;5030065;28;20441;-75
2023/11/14 07:19:05;;;;;;;1.80;0.60;;;12.10;95.00;;;;;;5030418;28;20916;-75
2023/11/14 07:21:33;;;;;;;1.90;0.80;;;12.20;94.00;;;;;;5030573;28;20489;-75
2023/11/14 07:24:00;;;;;;;2.10;1.00;;;12.10;93.20;;;;;;5030438;28;20991;-76
2023/11/14 07:26:29;;;;;;;1.80;0.73;;;12.10;92.90;;;;;;5029961;28;20435;-75
2023/11/14 07:28:56;;;;;;;2.43;0.80;;;12.10;92.60;;;;;;5030436;28;20473;-75
2023/11/14 07:31:23;;;;;;;5.40;1.93;;;12.10;92.10;;;;;;5030510;28;20443;-75
2023/11/14 07:33:52;;;;;;;2.20;0.70;;;12.10;91.90;;;;;;5030711;28;20431;-75
2023/11/14 07:36:19;;;;;;;3.30;0.90;;;12.20;91.90;;;;;;5012554;28;20803;-75
2023/11/14 07:38:46;;;;;;;1.90;0.63;;;12.20;92.60;;;;;;5012580;28;20934;-75
2023/11/14 07:41:15;;;;;;;1.80;0.77;;;12.20;93.00;;;;;;5014248;28;20451;-75
2023/11/14 07:43:42;;;;;;;1.80;0.70;;;12.20;93.40;;;;;;5012277;28;20526;-75
2023/11/14 07:46:09;;;;;;;2.00;0.90;;;12.30;94.00;;;;;;5032840;28;20838;-76
2023/11/14 07:48:36;;;;;;;2.43;0.90;;;12.30;94.50;;;;;;5032284;28;20496;-75
2023/11/14 07:51:05;;;;;;;1.80;0.70;;;12.40;95.10;;;;;;5032794;28;20484;-75
2023/11/14 07:53:33;;;;;;;1.77;0.70;;;12.40;95.20;;;;;;5032922;28;20484;-75
2023/11/14 07:56:01;;;;;;;2.57;0.70;;;12.50;95.30;;;;;;5028315;28;20927;-75
2023/11/14 07:58:29;;;;;;;2.40;0.57;;;12.50;95.40;;;;;;5019512;28;20814;-75
2023/11/14 08:00:57;;;;;;;1.87;0.60;;;12.50;95.50;;;;;;5020609;28;20440;-75
2023/11/14 08:03:24;;;;;;;2.10;0.83;;;12.50;95.10;;;;;;5022055;28;20561;-76
2023/11/14 08:05:53;;;;;;;4.27;1.00;;;12.60;94.60;;;;;;5021453;28;20449;-76
2023/11/14 08:08:22;;;;;;;2.90;0.73;;;12.70;94.60;;;;;;5023498;28;20434;-75
2023/11/14 08:10:49;;;;;;;1.93;0.80;;;12.70;94.50;;;;;;5024298;28;20442;-75
2023/11/14 08:13:17;;;;;;;3.17;1.43;;;12.70;94.30;;;;;;5023988;28;20443;-75
2023/11/14 08:15:44;;;;;;;2.43;0.70;;;12.70;93.50;;;;;;5023661;28;20435;-75
2023/11/14 08:18:12;;;;;;;2.10;0.70;;;12.70;92.40;;;;;;5027154;28;20921;-76
2023/11/14 08:20:40;;;;;;;2.13;0.80;;;12.70;91.70;;;;;;5027807;28;20783;-75
2023/11/14 08:23:07;;;;;;;1.70;0.60;;;12.80;91.40;;;;;;5023655;28;20848;-75
2023/11/14 08:25:35;;;;;;;1.90;0.60;;;12.80;91.00;;;;;;5022980;28;20438;-75
2023/11/14 08:28:02;;;;;;;2.00;0.77;;;12.90;90.70;;;;;;5026057;28;20504;-75
2023/11/14 08:30:30;;;;;;;1.90;0.60;;;12.90;90.20;;;;;;5027006;28;20437;-75
2023/11/14 08:33:04;;;;;;;1.90;0.67;;;12.90;90.30;;;;;;5025302;28;20744;-75
2023/11/14 08:35:31;;;;;;;2.00;0.70;;;13.10;89.80;;;;;;5023410;28;20517;-75
2023/11/14 08:37:58;;;;;;;2.00;0.70;;;13.20;88.80;;;;;;5026680;28;20943;-75
2023/11/14 08:40:28;;;;;;;2.37;0.77;;;13.20;87.90;;;;;;5023720;28;20442;-75
2023/11/14 08:42:57;;;;;;;2.00;0.70;;;13.30;87.10;;;;;;5025260;28;20845;-75
2023/11/14 08:45:27;;;;;;;2.10;0.90;;;13.30;85.60;;;;;;5025262;28;20439;-75
2023/11/14 08:48:00;;;;;;;3.97;0.80;;;13.30;82.30;;;;;;5024425;28;20534;-75
2023/11/14 08:50:28;;;;;;;1.90;0.80;;;13.30;79.70;;;;;;5025016;28;20450;-76
2023/11/14 08:52:55;;;;;;;2.93;1.10;;;13.30;78.70;;;;;;5024943;28;20451;-76
2023/11/14 08:55:27;;;;;;;6.43;0.73;;;13.20;76.30;;;;;;5025476;28;20442;-75
2023/11/14 08:57:54;;;;;;;2.13;0.80;;;13.10;71.70;;;;;;5026359;28;20478;-75
2023/11/14 09:00:23;;;;;;;2.30;0.83;;;13.10;71.50;;;;;;5023801;28;20431;-75
2023/11/14 09:02:50;;;;;;;1.97;0.77;;;13.10;72.40;;;;;;5026394;28;20481;-75
2023/11/14 09:05:20;;;;;;;2.03;0.70;;;13.10;71.40;;;;;;5022876;28;20498;-76
2023/11/14 09:07:49;;;;;;;1.90;0.70;;;13.10;71.30;;;;;;5026627;28;20438;-75
2023/11/14 09:10:16;;;;;;;1.83;0.60;;;13.10;70.90;;;;;;5022891;28;20921;-75
2023/11/14 09:12:57;;;;;;;2.07;0.70;;;13.00;69.60;;;;;;5026388;28;20443;-75
2023/11/14 09:15:25;;;;;;;2.00;0.73;;;13.00;69.30;;;;;;5023304;28;20474;-75
2023/11/14 09:17:53;;;;;;;2.60;0.80;;;12.90;68.40;;;;;;5021826;28;20444;-75
2023/11/14 09:20:20;;;;;;;2.13;0.97;;;12.80;68.40;;;;;;5026377;28;20443;-75
2023/11/14 09:22:47;;;;;;;2.33;0.70;;;12.80;67.90;;;;;;5023230;28;20487;-76
2023/11/14 09:25:14;;;;;;;1.87;0.67;;;12.70;68.70;;;;;;5025964;28;20430;-75
2023/11/14 09:27:41;;;;;;;2.37;0.70;;;12.60;67.30;;;;;;5025886;28;20511;-75
2023/11/14 09:30:11;;;;;;;1.90;0.90;;;12.60;67.30;;;;;;5023992;28;20492;-75
2023/11/14 09:32:39;;;;;;;2.53;0.70;;;12.60;67.40;;;;;;5024722;28;20538;-75
2023/11/14 09:35:07;;;;;;;2.57;0.90;;;12.50;67.30;;;;;;5023966;28;20442;-75
2023/11/14 09:37:34;;;;;;;2.13;0.70;;;12.50;67.30;;;;;;5023460;28;20443;-75
2023/11/14 09:40:21;;;;;;;1.97;0.70;;;12.50;66.50;;;;;;5024992;28;20500;-75
2023/11/14 09:42:49;;;;;;;2.97;1.60;;;12.50;65.70;;;;;;5025332;28;20481;-76
2023/11/14 09:45:27;;;;;;;1.83;0.60;;;12.50;66.70;;;;;;5022799;28;20865;-76
2023/11/14 09:47:57;;;;;;;2.03;0.77;;;12.60;67.00;;;;;;5025225;28;20841;-76
2023/11/14 09:50:26;;;;;;;3.50;0.80;;;12.70;67.20;;;;;;5022453;28;20502;-76
2023/11/14 09:52:53;;;;;;;2.00;1.00;;;12.70;66.40;;;;;;5022397;28;20447;-76
2023/11/14 09:55:21;;;;;;;2.13;0.60;;;12.80;64.60;;;;;;5022481;28;20439;-75
2023/11/14 09:57:48;;;;;;;2.60;0.73;;;12.90;64.00;;;;;;5024518;28;20563;-76
2023/11/14 10:00:16;;;;;;;2.33;0.80;;;13.10;64.80;;;;;;5022660;28;20913;-76
2023/11/14 10:02:43;;;;;;;3.13;0.87;;;13.20;64.50;;;;;;5024401;28;20490;-75
2023/11/14 10:05:12;;;;;;;1.77;0.60;;;13.20;64.10;;;;;;5023748;28;20461;-75
2023/11/14 10:07:40;;;;;;;1.70;0.63;;;13.30;62.80;;;;;;5022629;28;20454;-76
2023/11/14 10:10:09;;;;;;;1.77;0.70;;;13.30;61.50;;;;;;5022845;28;20782;-76
2023/11/14 10:12:37;;;;;;;1.70;0.60;;;13.40;62.00;;;;;;5023828;28;20441;-76
2023/11/14 10:15:08;;;;;;;3.23;0.60;;;13.30;61.50;;;;;;5022383;28;20439;-76
2023/11/14 10:17:47;;;;;;;2.83;0.77;;;13.40;62.30;;;;;;5023508;28;20454;-76
2023/11/14 10:20:18;;;;;;;2.00;0.60;;;13.50;61.50;;;;;;5022625;28;20442;-76
2023/11/14 10:22:49;;;;;;;1.87;0.53;;;13.60;61.80;;;;;;5023603;28;20479;-76
2023/11/14 10:25:36;;;;;;;2.27;0.60;;;13.60;60.10;;;;;;5022949;28;20446;-76
2023/11/14 10:28:07;;;;;;;4.80;0.70;;;13.70;60.20;;;;;;5024140;28;20438;-76
2023/11/14 10:30:49;;;;;;;1.80;0.60;;;13.70;60.00;;;;;;5020875;28;20463;-76
2023/11/14 10:33:16;;;;;;;2.00;0.70;;;13.70;61.40;;;;;;5023377;28;20453;-76
2023/11/14 10:35:46;;;;;;;2.53;0.90;;;13.80;60.50;;;;;;5022745;28;20745;-75
2023/11/14 10:38:16;;;;;;;2.77;0.70;;;13.80;60.30;;;;;;5022032;28;20527;-76
2023/11/14 10:40:47;;;;;;;2.10;0.60;;;13.80;59.90;;;;;;5023233;28;20500;-76
2023/11/14 10:43:14;;;;;;;1.90;0.70;;;13.80;60.10;;;;;;5022179;28;20569;-76
2023/11/14 10:45:45;;;;;;;2.30;1.00;;;13.80;61.30;;;;;;5023559;28;20529;-76
2023/11/14 10:48:21;;;;;;;1.90;0.63;;;13.70;61.10;;;;;;5023291;28;20442;-76
2023/11/14 10:50:50;;;;;;;2.10;0.70;;;13.70;60.60;;;;;;5022795;28;20533;-76
2023/11/14 10:53:17;;;;;;;4.93;0.80;;;13.70;60.20;;;;;;5022893;28;20442;-76
2023/11/14 10:55:47;;;;;;;4.00;1.00;;;13.60;60.30;;;;;;5022031;28;20439;-76
2023/11/14 10:58:18;;;;;;;4.27;1.40;;;13.60;60.80;;;;;;5021835;28;20549;-76
2023/11/14 11:00:45;;;;;;;2.50;0.97;;;13.60;61.00;;;;;;5023548;28;20442;-76
2023/11/14 11:03:14;;;;;;;2.83;0.70;;;13.60;61.60;;;;;;5021471;28;20549;-76
2023/11/14 11:05:42;;;;;;;3.70;0.70;;;13.60;61.10;;;;;;5023702;28;20445;-76
2023/11/14 11:08:12;;;;;;;2.00;0.70;;;13.50;60.30;;;;;;5022456;28;20437;-76
2023/11/14 11:10:39;;;;;;;2.00;0.80;;;13.50;60.10;;;;;;5023100;28;20439;-76
2023/11/14 11:13:12;;;;;;;2.00;0.70;;;13.60;60.00;;;;;;5021315;28;20514;-76
2023/11/14 11:15:46;;;;;;;2.00;0.70;;;13.60;59.60;;;;;;5020922;28;20522;-76
2023/11/14 11:18:13;;;;;;;1.90;0.63;;;13.70;59.90;;;;;;5020407;28;20497;-76
2023/11/14 11:20:41;;;;;;;2.20;0.80;;;13.70;59.80;;;;;;5024234;28;20893;-76
2023/11/14 11:23:12;;;;;;;1.90;0.70;;;13.70;59.80;;;;;;5020790;28;20487;-76
2023/11/14 11:25:41;;;;;;;1.70;0.60;;;13.70;59.60;;;;;;5020963;28;20449;-76
2023/11/14 11:28:31;;;;;;;1.70;0.60;;;13.70;59.40;;;;;;5020436;28;20455;-76
2023/11/14 11:31:07;;;;;;;2.00;0.60;;;13.70;59.10;;;;;;5022640;28;20465;-76
2023/11/14 11:33:36;;;;;;;2.10;0.90;;;13.70;58.60;;;;;;5021062;28;20517;-76
2023/11/14 11:36:30;;;;;;;2.77;0.70;;;13.80;58.80;;;;;;5023382;28;20485;-76
2023/11/14 11:39:00;;;;;;;2.73;0.80;;;13.80;58.60;;;;;;4993118;28;20458;-76
2023/11/14 11:41:31;;;;;;;1.83;0.60;;;13.90;58.30;;;;;;5023878;28;20498;-76
2023/11/14 11:44:07;;;;;;;1.77;0.70;;;13.90;57.90;;;;;;5025574;28;20489;-76
2023/11/14 11:46:39;;;;;;;2.00;0.60;;;13.90;57.70;;;;;;5026712;28;20524;-76
2023/11/14 11:49:31;;;;;;;3.33;1.10;;;14.00;57.90;;;;;;5024237;28;20470;-76
2023/11/14 11:52:19;;;;;;;2.63;0.60;;;14.00;57.70;;;;;;5027965;28;20430;-76
2023/11/14 11:55:10;;;;;;;1.80;0.60;;;14.00;57.70;;;;;;5024317;28;20446;-76
2023/11/14 11:57:38;;;;;;;1.70;0.60;;;14.00;57.50;;;;;;5026772;28;20473;-76
2023/11/14 12:00:22;;;;;;;2.13;0.60;;;14.00;57.60;;;;;;5025308;28;20438;-76
2023/11/14 12:02:49;;;;;;;1.70;0.70;;;14.00;57.20;;;;;;5024645;28;20501;-76
2023/11/14 12:05:20;;;;;;;2.00;0.63;;;14.00;57.50;;;;;;5027659;28;20447;-76
2023/11/14 12:07:47;;;;;;;2.10;0.60;;;14.00;57.70;;;;;;5027305;28;20484;-77
2023/11/14 12:10:21;;;;;;;2.27;0.63;;;13.90;57.60;;;;;;5024061;28;20930;-76
2023/11/14 12:12:52;;;;;;;1.70;0.60;;;13.90;57.70;;;;;;5024696;28;20482;-76
2023/11/14 12:15:20;;;;;;;4.13;0.60;;;13.90;58.30;;;;;;5024224;28;20431;-76
2023/11/14 12:17:52;;;;;;;2.53;0.60;;;13.90;58.30;;;;;;5024317;28;20446;-76
2023/11/14 12:20:20;;;;;;;1.90;0.60;;;13.80;58.30;;;;;;5024048;28;20837;-76
2023/11/14 12:22:49;;;;;;;1.97;0.70;;;13.80;58.40;;;;;;5023966;28;20877;-76
2023/11/14 12:25:19;;;;;;;2.07;0.80;;;13.80;58.10;;;;;;5027376;28;20489;-76
2023/11/14 12:27:57;;;;;;;1.90;0.63;;;13.80;58.40;;;;;;5026747;28;20529;-76
2023/11/14 12:30:25;;;;;;;2.03;0.80;;;13.80;58.10;;;;;;5023813;28;20434;-77
2023/11/14 12:33:06;;;;;;;2.30;0.60;;;13.80;57.90;;;;;;5027130;28;20446;-76
2023/11/14 12:35:56;;;;;;;1.80;0.63;;;13.80;57.60;;;;;;5025437;28;20580;-76
2023/11/14 12:38:31;;;;;;;5.90;0.90;;;13.80;57.60;;;;;;5023231;28;20442;-76
2023/11/14 12:41:21;;;;;;;2.50;0.73;;;13.70;58.20;;;;;;5024023;28;20446;-75
2023/11/14 12:43:50;;;;;;;2.20;1.00;;;13.60;58.30;;;;;;5023807;28;20485;-76
2023/11/14 12:46:29;;;;;;;1.80;0.70;;;13.50;58.30;;;;;;5026073;28;20455;-76
2023/11/14 12:49:06;;;;;;;1.80;0.70;;;13.40;58.90;;;;;;5023596;28;20434;-75
2023/11/14 12:51:34;;;;;;;2.07;0.80;;;13.30;58.10;;;;;;5025711;28;20438;-76
2023/11/14 12:54:03;;;;;;;2.60;0.70;;;13.30;58.30;;;;;;5023266;28;20443;-76
2023/11/14 12:56:32;;;;;;;1.90;0.73;;;13.20;58.80;;;;;;5027313;28;20496;-76